Time;durP1;ratioP1;P1;durP2;ratioP2;P2;SDS_P1;SDS_P2;PMS_P1;PMS_P2;Temp;Humidity;BMP_temperature;BMP_pressure;BME280_temperature;BME280_humidity;BME280_pressure;Samples;Min_cycle;Max_cycle;Signal;HPM_P1;HPM_P2
2021/11/15 00:02:34;;;;;;;23.30;13.68;;;23.50;46.40;;;;;;6145691;28;82977;-66
2021/11/15 00:05:35;;;;;;;22.40;13.75;;;23.50;46.90;;;;;;6152707;28;82903;-66
2021/11/15 00:08:35;;;;;;;21.58;13.75;;;23.50;46.60;;;;;;6149280;28;86202;-68
2021/11/15 00:11:36;;;;;;;22.50;13.13;;;23.50;46.50;;;;;;6151221;28;82889;-67
2021/11/15 00:14:36;;;;;;;22.95;13.32;;;23.50;46.40;;;;;;6151842;28;83264;-67
2021/11/15 00:17:38;;;;;;;18.73;12.50;;;23.50;46.70;;;;;;6152054;28;83887;-66
2021/11/15 00:20:38;;;;;;;19.42;11.82;;;23.50;46.50;;;;;;6144020;28;86553;-67
2021/11/15 00:23:39;;;;;;;21.17;12.50;;;23.50;47.00;;;;;;6158248;28;82927;-66
2021/11/15 00:26:39;;;;;;;20.05;12.48;;;23.50;46.60;;;;;;6153234;28;84042;-67
2021/11/15 00:29:40;;;;;;;21.15;12.63;;;23.50;46.60;;;;;;6148080;28;83362;-67
2021/11/15 00:32:40;;;;;;;21.45;13.23;;;23.50;46.60;;;;;;6158775;28;82721;-65
2021/11/15 00:35:41;;;;;;;20.02;11.98;;;23.50;46.70;;;;;;6151778;28;83410;-66
2021/11/15 00:38:41;;;;;;;19.45;12.07;;;23.50;46.80;;;;;;6149370;28;83342;-66
2021/11/15 00:41:42;;;;;;;18.05;11.93;;;23.50;47.00;;;;;;6153721;28;83160;-66
2021/11/15 00:44:42;;;;;;;18.00;11.07;;;23.50;47.50;;;;;;6150866;28;83696;-65
2021/11/15 00:47:43;;;;;;;17.30;10.85;;;23.40;47.10;;;;;;6151441;28;83432;-66
2021/11/15 00:50:43;;;;;;;21.80;12.77;;;23.50;47.50;;;;;;6149393;28;82886;-65
2021/11/15 00:53:44;;;;;;;21.52;12.45;;;23.50;46.80;;;;;;6155880;28;83141;-66
2021/11/15 00:56:44;;;;;;;19.13;11.43;;;23.50;46.60;;;;;;6144129;28;84241;-66
2021/11/15 00:59:45;;;;;;;20.15;12.00;;;23.40;46.80;;;;;;6151575;28;83918;-65
2021/11/15 01:02:45;;;;;;;19.50;11.20;;;23.50;46.40;;;;;;6156685;28;84045;-66
2021/11/15 01:05:49;;;;;;;20.20;12.25;;;23.50;46.70;;;;;;6157864;28;83411;-66
2021/11/15 01:08:49;;;;;;;20.50;12.18;;;23.40;46.70;;;;;;6149548;28;84210;-66
2021/11/15 01:11:50;;;;;;;15.45;10.57;;;23.50;46.70;;;;;;6151060;28;83481;-65
2021/11/15 01:14:50;;;;;;;17.90;11.38;;;23.40;47.00;;;;;;6150589;28;83670;-65
2021/11/15 01:17:51;;;;;;;23.13;11.93;;;23.40;47.40;;;;;;6142844;28;82962;-65
2021/11/15 01:20:51;;;;;;;18.67;11.02;;;23.40;47.90;;;;;;6145842;28;84005;-65
2021/11/15 01:23:52;;;;;;;18.13;11.38;;;23.40;47.00;;;;;;6144962;28;83388;-65
2021/11/15 01:26:52;;;;;;;21.65;12.93;;;23.40;46.60;;;;;;6153881;28;83558;-66
2021/11/15 01:29:53;;;;;;;21.23;12.68;;;23.40;46.20;;;;;;6146426;28;83105;-66
2021/11/15 01:32:53;;;;;;;20.75;11.60;;;23.40;46.10;;;;;;6153587;28;83847;-65
2021/11/15 01:35:54;;;;;;;19.23;11.95;;;23.40;47.60;;;;;;6150230;28;82684;-66
2021/11/15 01:38:54;;;;;;;21.25;12.48;;;23.40;46.10;;;;;;6154897;28;84479;-66
2021/11/15 01:41:55;;;;;;;19.48;11.60;;;23.40;45.90;;;;;;6149617;28;83121;-66
2021/11/15 01:44:55;;;;;;;18.58;11.35;;;23.40;46.10;;;;;;6152524;28;83457;-65
2021/11/15 01:47:56;;;;;;;19.90;12.73;;;23.40;46.00;;;;;;6155001;28;83225;-65
2021/11/15 01:50:57;;;;;;;21.70;12.73;;;23.40;45.70;;;;;;6141237;28;83327;-65
2021/11/15 01:53:57;;;;;;;18.35;11.75;;;23.40;45.90;;;;;;6153325;28;83094;-65
2021/11/15 01:56:58;;;;;;;19.98;12.93;;;23.40;46.50;;;;;;6150435;28;90357;-65
2021/11/15 01:59:58;;;;;;;20.15;12.57;;;23.40;45.40;;;;;;6148972;28;82761;-65
2021/11/15 02:02:59;;;;;;;18.90;12.80;;;23.40;45.90;;;;;;6149543;28;83565;-65
2021/11/15 02:05:59;;;;;;;19.25;12.38;;;23.40;45.80;;;;;;6153603;28;83687;-66
2021/11/15 02:09:00;;;;;;;23.90;13.45;;;23.40;45.30;;;;;;6154826;28;82824;-66
2021/11/15 02:12:00;;;;;;;19.35;12.55;;;23.30;45.00;;;;;;6153132;28;86102;-66
2021/11/15 02:15:01;;;;;;;21.05;12.13;;;23.30;45.20;;;;;;6150696;28;82793;-66
2021/11/15 02:18:01;;;;;;;20.95;12.98;;;23.30;45.50;;;;;;6149424;28;84454;-65
2021/11/15 02:21:02;;;;;;;20.23;13.48;;;23.40;45.10;;;;;;6150145;28;82990;-65
2021/11/15 02:24:02;;;;;;;22.40;13.40;;;23.40;45.00;;;;;;6149807;28;83299;-65
2021/11/15 02:27:03;;;;;;;23.17;14.05;;;23.40;45.90;;;;;;6145836;28;83637;-65
2021/11/15 02:30:03;;;;;;;20.75;13.10;;;23.40;45.40;;;;;;6148824;28;84242;-66
2021/11/15 02:33:04;;;;;;;19.88;12.70;;;23.40;45.30;;;;;;6150582;28;82990;-66
2021/11/15 02:36:05;;;;;;;23.05;14.07;;;23.40;45.90;;;;;;6148975;28;84941;-65
2021/11/15 02:39:05;;;;;;;24.38;13.57;;;23.30;45.40;;;;;;6142857;28;83227;-66
2021/11/15 02:42:06;;;;;;;22.48;12.38;;;23.40;44.90;;;;;;6154773;28;83403;-66
2021/11/15 02:45:06;;;;;;;21.63;13.25;;;23.40;45.10;;;;;;6145707;28;86074;-66
2021/11/15 02:48:07;;;;;;;18.50;11.90;;;23.40;45.30;;;;;;6147492;28;84174;-66
2021/11/15 02:51:07;;;;;;;21.20;13.63;;;23.40;45.00;;;;;;6147574;28;84006;-66
2021/11/15 02:54:08;;;;;;;19.85;12.48;;;23.30;45.10;;;;;;6155322;28;84297;-66
2021/11/15 02:57:09;;;;;;;17.70;11.43;;;23.30;45.90;;;;;;6148651;28;83492;-66
2021/11/15 03:00:10;;;;;;;18.23;12.52;;;23.30;45.50;;;;;;6146442;28;83842;-66
2021/11/15 03:03:10;;;;;;;23.63;13.60;;;23.30;46.10;;;;;;6147637;28;83491;-66
2021/11/15 03:06:11;;;;;;;19.70;12.15;;;23.30;45.90;;;;;;6145850;28;84846;-66
2021/11/15 03:09:11;;;;;;;20.67;12.70;;;23.30;45.70;;;;;;6151729;28;83471;-66
2021/11/15 03:12:12;;;;;;;20.85;11.90;;;23.30;45.80;;;;;;6145221;28;83392;-66
2021/11/15 03:15:12;;;;;;;17.98;12.20;;;23.30;46.00;;;;;;6147594;28;84221;-66
2021/11/15 03:18:13;;;;;;;21.40;13.27;;;23.40;45.10;;;;;;6156128;28;85363;-65
2021/11/15 03:21:13;;;;;;;18.65;13.00;;;23.40;44.70;;;;;;6143898;28;83319;-67
2021/11/15 03:24:14;;;;;;;19.50;11.85;;;23.30;44.20;;;;;;6143929;28;82954;-66
2021/11/15 03:27:14;;;;;;;22.30;13.20;;;23.40;44.20;;;;;;6151579;28;84286;-65
2021/11/15 03:30:15;;;;;;;19.42;11.77;;;23.40;44.00;;;;;;6151637;28;83106;-65
2021/11/15 03:33:16;;;;;;;21.60;13.40;;;23.50;43.90;;;;;;6150320;28;84070;-65
2021/11/15 03:36:16;;;;;;;20.35;12.13;;;23.50;43.90;;;;;;6150707;28;84891;-66
2021/11/15 03:39:17;;;;;;;19.40;11.65;;;23.50;43.80;;;;;;6154628;28;84388;-65
2021/11/15 03:42:17;;;;;;;18.45;12.15;;;23.50;43.80;;;;;;6153119;28;82985;-64
2021/11/15 03:45:18;;;;;;;16.17;10.23;;;23.50;43.70;;;;;;6156474;28;84447;-64
2021/11/15 03:48:20;;;;;;;19.17;11.57;;;23.50;43.70;;;;;;6155148;28;83224;-65
2021/11/15 03:51:21;;;;;;;17.85;11.63;;;23.60;43.70;;;;;;6156957;28;84340;-66
2021/11/15 03:54:21;;;;;;;18.90;11.50;;;23.60;43.60;;;;;;6151672;28;85116;-65
2021/11/15 03:57:22;;;;;;;17.55;11.40;;;23.60;43.50;;;;;;6153900;28;83200;-65
2021/11/15 04:00:23;;;;;;;17.50;11.43;;;23.60;43.50;;;;;;6156134;28;90232;-65
2021/11/15 04:03:31;;;;;;;21.13;11.80;;;23.70;43.40;;;;;;6154524;28;83609;-65
2021/11/15 04:06:37;;;;;;;15.20;11.10;;;23.70;43.40;;;;;;6152783;28;83699;-66
2021/11/15 04:09:38;;;;;;;18.15;11.90;;;23.70;43.30;;;;;;6154925;28;88092;-65
2021/11/15 04:12:38;;;;;;;17.90;11.73;;;23.70;43.40;;;;;;6153099;28;82953;-65
2021/11/15 04:15:39;;;;;;;21.00;12.60;;;23.70;43.30;;;;;;6150411;28;83445;-65
2021/11/15 04:18:39;;;;;;;17.58;11.77;;;23.70;43.00;;;;;;6156964;28;83324;-64
2021/11/15 04:21:40;;;;;;;19.30;11.68;;;23.70;43.00;;;;;;6156353;28;82745;-64
2021/11/15 04:24:40;;;;;;;20.58;13.48;;;23.70;42.90;;;;;;6149796;28;83982;-63
2021/11/15 04:27:41;;;;;;;20.23;12.05;;;23.70;42.80;;;;;;6154486;28;86538;-64
2021/11/15 04:30:42;;;;;;;18.50;12.05;;;23.70;42.80;;;;;;6146297;28;83063;-65
2021/11/15 04:33:42;;;;;;;17.17;11.50;;;23.80;43.40;;;;;;6156121;28;83323;-65
2021/11/15 04:36:43;;;;;;;16.20;10.52;;;23.80;42.70;;;;;;6151482;28;87473;-65
2021/11/15 04:39:43;;;;;;;21.50;13.38;;;23.80;42.60;;;;;;6144818;28;82819;-65
2021/11/15 04:42:44;;;;;;;19.40;12.50;;;23.80;42.50;;;;;;6145104;28;83911;-65
2021/11/15 04:45:44;;;;;;;17.13;11.63;;;23.80;42.40;;;;;;6152935;28;82997;-65
2021/11/15 04:48:45;;;;;;;17.83;11.60;;;23.80;42.40;;;;;;6148327;28;84516;-65
2021/11/15 04:51:45;;;;;;;18.80;10.85;;;23.80;42.30;;;;;;6148911;28;83223;-64
2021/11/15 04:54:46;;;;;;;18.00;12.07;;;23.80;42.40;;;;;;6148472;28;86004;-65
2021/11/15 04:57:46;;;;;;;19.63;12.70;;;23.80;42.30;;;;;;6150959;28;83771;-65
2021/11/15 05:00:47;;;;;;;20.63;11.77;;;23.90;42.30;;;;;;6150773;28;84970;-65
2021/11/15 05:03:47;;;;;;;18.60;12.07;;;23.90;42.40;;;;;;6150713;28;84500;-66
2021/11/15 05:06:48;;;;;;;20.63;12.27;;;23.90;42.30;;;;;;6146859;28;83556;-66
2021/11/15 05:09:48;;;;;;;16.60;10.80;;;23.90;42.30;;;;;;6157341;28;83736;-66
2021/11/15 05:12:49;;;;;;;19.35;12.02;;;23.90;42.30;;;;;;6151037;28;82799;-64
2021/11/15 05:15:49;;;;;;;20.52;12.18;;;23.90;42.30;;;;;;6153813;28;82962;-66
2021/11/15 05:18:50;;;;;;;16.70;11.07;;;23.90;42.40;;;;;;6159827;28;82803;-64
2021/11/15 05:21:50;;;;;;;20.80;12.18;;;23.90;42.60;;;;;;6139401;28;83688;-65
2021/11/15 05:24:51;;;;;;;18.27;11.60;;;23.90;42.40;;;;;;6146769;28;83155;-69
2021/11/15 05:27:51;;;;;;;20.85;11.38;;;23.90;42.60;;;;;;6154123;28;83480;-65
2021/11/15 05:30:52;;;;;;;18.95;10.60;;;23.90;42.70;;;;;;6154208;28;82978;-67
2021/11/15 05:33:52;;;;;;;14.57;8.75;;;23.90;43.80;;;;;;6153854;28;83208;-67
2021/11/15 05:36:53;;;;;;;11.90;7.55;;;23.70;45.50;;;;;;6153747;28;83484;-68
2021/11/15 05:39:53;;;;;;;13.18;8.20;;;23.70;46.40;;;;;;6156732;28;80327;-61
2021/11/15 05:42:54;;;;;;;13.52;8.35;;;23.60;47.00;;;;;;6149034;28;80141;-64
2021/11/15 05:45:55;;;;;;;34.70;15.77;;;23.60;47.90;;;;;;6155712;28;80458;-64
2021/11/15 05:48:55;;;;;;;56.58;30.00;;;23.60;48.70;;;;;;6147583;28;82722;-65
2021/11/15 05:51:56;;;;;;;70.00;34.03;;;23.60;49.20;;;;;;6144712;28;83738;-65
2021/11/15 05:54:56;;;;;;;68.28;36.13;;;23.50;50.00;;;;;;6151967;28;83723;-64
2021/11/15 05:57:57;;;;;;;78.35;35.47;;;23.50;50.60;;;;;;6146106;28;83568;-65
2021/11/15 06:00:59;;;;;;;71.03;35.65;;;23.50;51.10;;;;;;6140498;28;84154;-64
2021/11/15 06:04:00;;;;;;;64.90;33.65;;;23.50;51.20;;;;;;6148273;28;83295;-65
2021/11/15 06:07:00;;;;;;;51.95;27.80;;;23.50;51.60;;;;;;6151921;28;83049;-68
2021/11/15 06:10:01;;;;;;;50.13;26.85;;;23.60;52.20;;;;;;6149820;28;85018;-67
2021/11/15 06:13:05;;;;;;;45.92;22.60;;;23.50;52.20;;;;;;6153364;28;83227;-64
2021/11/15 06:16:06;;;;;;;37.40;19.77;;;23.40;53.10;;;;;;6143576;28;83282;-65
2021/11/15 06:19:06;;;;;;;41.35;20.33;;;23.40;53.70;;;;;;6151236;28;83184;-62
2021/11/15 06:22:07;;;;;;;36.35;19.27;;;23.40;54.30;;;;;;6155269;28;83654;-64
2021/11/15 06:25:07;;;;;;;35.75;18.13;;;23.40;54.00;;;;;;6142804;28;83140;-64
2021/11/15 06:28:08;;;;;;;31.17;15.88;;;23.40;54.70;;;;;;6146835;28;86925;-65
2021/11/15 06:31:11;;;;;;;24.85;15.13;;;23.30;54.70;;;;;;6131702;28;84310;-65
2021/11/15 06:34:11;;;;;;;31.65;15.80;;;23.40;54.30;;;;;;6150584;28;84767;-65
2021/11/15 06:37:12;;;;;;;29.60;16.85;;;23.40;53.80;;;;;;6152144;28;84143;-65
2021/11/15 06:40:12;;;;;;;30.40;16.55;;;23.50;54.00;;;;;;6150674;28;83309;-66
2021/11/15 06:43:13;;;;;;;23.98;14.70;;;23.50;53.50;;;;;;6151834;28;84023;-67
2021/11/15 06:46:14;;;;;;;28.75;16.45;;;23.60;53.60;;;;;;6145329;28;83021;-68
2021/11/15 06:49:14;;;;;;;26.42;15.02;;;23.60;53.70;;;;;;6151188;28;83062;-67
2021/11/15 06:52:15;;;;;;;28.50;15.88;;;23.60;53.50;;;;;;6146572;28;83433;-64
2021/11/15 06:55:15;;;;;;;28.27;15.63;;;23.60;53.00;;;;;;6154191;28;85086;-63
2021/11/15 06:58:16;;;;;;;28.65;16.30;;;23.60;52.90;;;;;;6154678;28;83040;-63
2021/11/15 07:01:16;;;;;;;32.63;16.83;;;23.60;53.10;;;;;;6145894;28;84033;-65
2021/11/15 07:04:17;;;;;;;27.02;15.82;;;23.60;52.90;;;;;;6136464;28;84498;-64
2021/11/15 07:07:17;;;;;;;32.72;16.85;;;23.60;53.10;;;;;;6147715;28;83609;-65
2021/11/15 07:10:18;;;;;;;29.20;15.52;;;23.70;53.00;;;;;;6145457;28;83236;-64
2021/11/15 07:13:18;;;;;;;26.20;15.77;;;23.60;52.80;;;;;;6150760;28;83434;-65
2021/11/15 07:16:19;;;;;;;26.05;14.73;;;23.60;52.80;;;;;;6146244;28;83909;-65
2021/11/15 07:19:19;;;;;;;20.95;13.30;;;23.60;52.90;;;;;;6144507;28;83050;-65
2021/11/15 07:22:20;;;;;;;22.67;13.60;;;23.60;53.20;;;;;;6147674;28;82794;-64
2021/11/15 07:25:21;;;;;;;21.55;13.10;;;23.50;53.10;;;;;;6145600;28;83589;-64
2021/11/15 07:28:22;;;;;;;19.88;11.70;;;23.50;53.20;;;;;;6145401;28;83000;-63
2021/11/15 07:31:22;;;;;;;21.58;11.70;;;23.50;53.60;;;;;;6144081;28;83027;-64
2021/11/15 07:34:27;;;;;;;20.02;11.80;;;23.50;53.70;;;;;;6149482;28;89975;-64
2021/11/15 07:37:27;;;;;;;22.23;12.25;;;23.50;53.60;;;;;;6158691;28;83132;-73
2021/11/15 07:40:28;;;;;;;19.98;10.55;;;23.50;53.60;;;;;;6146509;28;83302;-71
2021/11/15 07:43:28;;;;;;;20.42;12.02;;;23.50;53.80;;;;;;6153008;28;82850;-70
2021/11/15 07:46:29;;;;;;;19.60;12.10;;;23.50;53.80;;;;;;6144542;28;83022;-68
2021/11/15 07:49:29;;;;;;;23.40;11.05;;;23.50;53.80;;;;;;6142314;28;83015;-69
2021/11/15 07:52:31;;;;;;;19.95;10.90;;;23.50;53.70;;;;;;6155668;28;83209;-67
2021/11/15 07:55:32;;;;;;;17.85;10.35;;;23.40;53.90;;;;;;6140992;28;84675;-68
2021/11/15 07:58:32;;;;;;;19.63;10.57;;;23.40;54.30;;;;;;6155720;28;83146;-72
2021/11/15 08:01:33;;;;;;;16.85;9.77;;;23.40;54.60;;;;;;6150602;28;83727;-65
2021/11/15 08:04:33;;;;;;;15.63;9.88;;;23.30;54.50;;;;;;6142725;28;83089;-65
2021/11/15 08:07:34;;;;;;;16.33;10.55;;;23.40;54.70;;;;;;6146535;28;81889;-66
2021/11/15 08:10:34;;;;;;;17.27;9.80;;;23.40;54.50;;;;;;6144303;28;83543;-65
2021/11/15 08:13:35;;;;;;;16.42;9.38;;;23.30;54.70;;;;;;6154522;28;82933;-66
2021/11/15 08:16:35;;;;;;;14.63;9.10;;;23.30;55.00;;;;;;6153344;28;80652;-64
2021/11/15 08:19:36;;;;;;;13.65;8.38;;;23.30;54.60;;;;;;6158128;28;80494;-65
2021/11/15 08:22:36;;;;;;;17.10;8.88;;;23.30;54.40;;;;;;6145978;28;81911;-65
2021/11/15 08:25:37;;;;;;;15.02;8.93;;;23.30;54.20;;;;;;6151015;28;80126;-64
2021/11/15 08:28:37;;;;;;;13.57;8.20;;;23.30;53.30;;;;;;6153774;28;80484;-63
2021/11/15 08:31:38;;;;;;;16.40;9.45;;;23.30;53.10;;;;;;6146989;28;80714;-65
2021/11/15 08:34:39;;;;;;;16.98;10.65;;;23.30;52.90;;;;;;6152122;28;81108;-63
2021/11/15 08:37:39;;;;;;;23.05;10.55;;;23.30;52.90;;;;;;6148429;28;82997;-66
2021/11/15 08:40:40;;;;;;;18.73;10.55;;;23.40;53.20;;;;;;6148064;28;84598;-65
2021/11/15 08:43:40;;;;;;;18.67;10.27;;;23.40;53.30;;;;;;6149161;28;83508;-65
2021/11/15 08:46:42;;;;;;;17.75;9.77;;;23.40;53.60;;;;;;6150262;28;82752;-65
2021/11/15 08:49:43;;;;;;;16.23;9.75;;;23.40;53.90;;;;;;6158368;28;87836;-66
2021/11/15 08:52:43;;;;;;;22.20;10.65;;;23.40;53.80;;;;;;6150777;28;80394;-65
2021/11/15 08:55:44;;;;;;;20.33;10.43;;;23.50;53.90;;;;;;6150659;28;82886;-66
2021/11/15 08:58:44;;;;;;;16.63;9.68;;;23.50;54.00;;;;;;6151057;28;85049;-66
2021/11/15 09:01:45;;;;;;;18.63;10.70;;;23.50;53.70;;;;;;6151726;28;83281;-64
2021/11/15 09:04:45;;;;;;;19.75;10.57;;;23.40;53.40;;;;;;6142332;28;84550;-66
2021/11/15 09:07:47;;;;;;;21.02;10.38;;;23.40;53.10;;;;;;6146083;28;83016;-66
2021/11/15 09:10:48;;;;;;;15.73;9.18;;;23.40;52.80;;;;;;6142263;28;85839;-66
2021/11/15 09:13:48;;;;;;;17.15;9.18;;;23.40;52.60;;;;;;6155108;28;83459;-67
2021/11/15 09:16:49;;;;;;;15.82;9.45;;;23.40;52.20;;;;;;6151795;28;81310;-69
2021/11/15 09:19:49;;;;;;;26.50;10.95;;;23.30;51.80;;;;;;6158052;28;80444;-64
2021/11/15 09:22:51;;;;;;;23.83;11.13;;;23.30;51.70;;;;;;6154021;28;83226;-67
2021/11/15 09:25:52;;;;;;;20.55;10.02;;;23.30;51.30;;;;;;6141325;28;84193;-66
2021/11/15 09:28:53;;;;;;;22.77;10.93;;;23.40;51.30;;;;;;6148361;28;83514;-67
2021/11/15 09:31:53;;;;;;;26.35;11.57;;;23.40;50.90;;;;;;6148508;28;83231;-66
2021/11/15 09:34:54;;;;;;;28.13;12.13;;;23.40;50.50;;;;;;6151248;28;83229;-67
2021/11/15 09:37:54;;;;;;;25.55;11.18;;;23.40;50.30;;;;;;6153954;28;83001;-65
2021/11/15 09:40:56;;;;;;;24.27;11.25;;;23.40;49.90;;;;;;6149683;28;82815;-66
2021/11/15 09:43:57;;;;;;;26.42;10.02;;;23.40;49.70;;;;;;6141004;28;83536;-67
2021/11/15 09:46:57;;;;;;;25.73;10.70;;;23.40;49.50;;;;;;6141110;28;83748;-67
2021/11/15 09:49:58;;;;;;;29.15;11.18;;;23.40;49.40;;;;;;6145299;28;83203;-67
2021/11/15 09:52:58;;;;;;;19.13;10.05;;;23.40;49.10;;;;;;6144655;28;83193;-67
2021/11/15 09:55:59;;;;;;;20.42;9.82;;;23.40;48.90;;;;;;6142124;28;84833;-66
2021/11/15 09:59:00;;;;;;;19.17;9.98;;;23.40;48.80;;;;;;6151764;28;83993;-66
2021/11/15 10:02:00;;;;;;;22.17;10.95;;;23.40;48.60;;;;;;6150164;28;85235;-66
2021/11/15 10:05:01;;;;;;;22.00;9.60;;;23.40;48.70;;;;;;6145760;28;83170;-66
2021/11/15 10:08:01;;;;;;;17.02;9.77;;;23.40;48.40;;;;;;6145425;28;83256;-67
2021/11/15 10:11:02;;;;;;;23.50;10.68;;;23.40;48.20;;;;;;6155570;28;80575;-66
2021/11/15 10:14:02;;;;;;;16.98;9.60;;;23.30;48.20;;;;;;6153359;28;83223;-67
2021/11/15 10:17:03;;;;;;;24.08;10.18;;;23.30;48.20;;;;;;6156743;28;84704;-67
2021/11/15 10:20:03;;;;;;;17.17;8.77;;;23.30;47.90;;;;;;6148052;28;82856;-66
2021/11/15 10:23:04;;;;;;;16.92;9.05;;;23.30;48.00;;;;;;6152178;28;83110;-67
2021/11/15 10:26:04;;;;;;;17.92;9.25;;;23.30;47.90;;;;;;6147701;28;80373;-67
2021/11/15 10:29:05;;;;;;;18.33;9.35;;;23.30;48.00;;;;;;6154950;28;80854;-66
2021/11/15 10:32:05;;;;;;;18.50;9.63;;;23.30;47.90;;;;;;6156350;28;83408;-70
2021/11/15 10:35:06;;;;;;;19.10;9.35;;;23.30;47.80;;;;;;6150251;28;80439;-67
2021/11/15 10:38:06;;;;;;;20.67;8.93;;;23.30;47.90;;;;;;6156946;28;81056;-65
2021/11/15 10:41:07;;;;;;;17.30;8.68;;;23.30;47.90;;;;;;6152421;28;81556;-68
2021/11/15 10:44:12;;;;;;;16.23;8.68;;;23.30;47.40;;;;;;6154942;28;80780;-66
2021/11/15 10:47:12;;;;;;;15.93;7.72;;;23.30;47.50;;;;;;6148315;28;81756;-67
2021/11/15 10:50:19;;;;;;;17.40;9.50;;;23.30;47.70;;;;;;6152272;28;80628;-67
2021/11/15 10:53:28;;;;;;;16.48;8.40;;;23.30;47.80;;;;;;6153915;28;80472;-67
2021/11/15 10:56:35;;;;;;;18.40;8.65;;;23.30;47.90;;;;;;6144773;28;80463;-65
2021/11/15 10:59:35;;;;;;;16.90;9.43;;;23.30;48.00;;;;;;6166085;28;81315;-67
2021/11/15 11:02:36;;;;;;;16.55;9.23;;;23.40;48.00;;;;;;6147113;28;81064;-66
2021/11/15 11:05:36;;;;;;;19.30;9.82;;;23.40;47.90;;;;;;6151829;28;83010;-67
2021/11/15 11:08:37;;;;;;;15.75;9.57;;;23.40;47.90;;;;;;6154718;28;80401;-67
2021/11/15 11:11:39;;;;;;;16.17;8.20;;;23.40;48.00;;;;;;6153141;28;81063;-67
2021/11/15 11:14:41;;;;;;;18.08;9.07;;;23.40;48.60;;;;;;6142116;28;81407;-66
2021/11/15 11:17:42;;;;;;;15.95;8.63;;;23.40;48.00;;;;;;6155913;28;80518;-66
2021/11/15 11:21:01;;;;;;;16.65;9.52;;;23.40;47.90;;;;;;6157735;28;80347;-70
2021/11/15 11:27:03;;;;;;;15.07;9.13;;;23.30;47.80;;;;;;6154742;28;80370;-69
2021/11/15 11:30:03;;;;;;;18.20;8.52;;;23.40;47.90;;;;;;6151114;28;80487;-66
2021/11/15 11:33:04;;;;;;;16.67;8.65;;;23.30;47.90;;;;;;6149201;28;80923;-65
2021/11/15 11:36:04;;;;;;;17.65;9.38;;;23.30;47.70;;;;;;6152699;28;80451;-66
2021/11/15 11:39:08;;;;;;;19.65;9.18;;;23.30;47.80;;;;;;6146767;28;81136;-66
2021/11/15 11:42:08;;;;;;;19.75;9.57;;;23.30;47.50;;;;;;6139047;28;82612;-67
2021/11/15 11:45:11;;;;;;;16.52;9.13;;;23.30;47.50;;;;;;6144277;28;80708;-65
2021/11/15 11:48:12;;;;;;;19.08;10.05;;;23.30;47.60;;;;;;6141157;28;80585;-65
2021/11/15 11:51:12;;;;;;;17.55;9.80;;;23.30;47.60;;;;;;6136562;28;82979;-69
2021/11/15 11:54:13;;;;;;;16.35;8.95;;;23.30;47.40;;;;;;6144349;28;81847;-67
2021/11/15 11:57:13;;;;;;;21.05;10.40;;;23.30;47.50;;;;;;6140490;28;81646;-67
2021/11/15 12:00:14;;;;;;;19.13;10.38;;;23.30;47.70;;;;;;6144835;28;83363;-67
2021/11/15 12:03:15;;;;;;;20.52;10.23;;;23.30;47.50;;;;;;6145312;28;84061;-64
2021/11/15 12:06:15;;;;;;;19.35;9.80;;;23.30;47.40;;;;;;6145236;28;83509;-65
2021/11/15 12:09:16;;;;;;;19.85;10.20;;;23.30;47.70;;;;;;6146056;28;82828;-66
2021/11/15 12:12:17;;;;;;;18.90;10.23;;;23.40;47.80;;;;;;6144037;28;83195;-66
2021/11/15 12:15:17;;;;;;;15.95;9.32;;;23.40;47.90;;;;;;6152701;28;83876;-66
2021/11/15 12:18:19;;;;;;;19.88;9.68;;;23.40;48.00;;;;;;6153861;28;84313;-67
2021/11/15 12:21:22;;;;;;;19.42;9.35;;;23.30;47.90;;;;;;6146477;28;80182;-65
2021/11/15 12:24:23;;;;;;;19.83;10.13;;;23.40;48.00;;;;;;6155601;28;80142;-66
2021/11/15 12:27:24;;;;;;;16.98;9.55;;;23.40;47.90;;;;;;6151793;28;82862;-65
2021/11/15 12:30:25;;;;;;;16.30;9.70;;;23.40;47.80;;;;;;6154146;28;82179;-65
2021/11/15 12:33:25;;;;;;;17.38;9.80;;;23.40;47.60;;;;;;6154436;28;81312;-66
2021/11/15 12:36:26;;;;;;;17.98;9.63;;;23.30;47.80;;;;;;6155909;28;81210;-65
2021/11/15 12:39:26;;;;;;;19.08;9.45;;;23.30;47.80;;;;;;6150741;28;80923;-65
2021/11/15 12:42:29;;;;;;;17.00;9.35;;;23.30;47.70;;;;;;6145091;28;80824;-65
2021/11/15 12:45:29;;;;;;;17.08;9.23;;;23.40;47.60;;;;;;6147234;28;80361;-66
2021/11/15 12:48:30;;;;;;;21.15;10.45;;;23.40;47.60;;;;;;6152638;28;80709;-66
2021/11/15 12:51:30;;;;;;;18.73;9.38;;;23.40;47.70;;;;;;6144814;28;82960;-66
2021/11/15 12:54:31;;;;;;;18.10;9.98;;;23.40;47.50;;;;;;6155890;28;82106;-65
2021/11/15 12:57:31;;;;;;;16.17;9.15;;;23.40;47.40;;;;;;6152129;28;83137;-65
2021/11/15 13:00:32;;;;;;;18.73;10.43;;;23.40;47.30;;;;;;6152577;28;82848;-66
2021/11/15 13:03:32;;;;;;;18.30;9.13;;;23.40;47.30;;;;;;6147732;28;83154;-67
2021/11/15 13:06:33;;;;;;;18.58;10.02;;;23.30;47.30;;;;;;6149846;28;89932;-66
2021/11/15 13:09:35;;;;;;;18.63;9.73;;;23.30;47.50;;;;;;6151170;28;83883;-66
2021/11/15 13:12:37;;;;;;;24.02;11.93;;;23.20;48.00;;;;;;6152776;28;83826;-66
2021/11/15 13:15:37;;;;;;;14.57;9.20;;;23.20;48.80;;;;;;6152296;28;83197;-66
2021/11/15 13:18:39;;;;;;;19.58;8.80;;;23.20;49.30;;;;;;6157133;28;82968;-66
2021/11/15 13:21:41;;;;;;;33.78;11.98;;;23.20;49.80;;;;;;6153503;28;81124;-66
2021/11/15 13:24:44;;;;;;;44.05;13.65;;;23.10;50.60;;;;;;6144714;28;83798;-65
2021/11/15 13:27:45;;;;;;;42.72;14.05;;;23.20;51.00;;;;;;6141534;28;83366;-65
2021/11/15 13:30:45;;;;;;;28.15;12.07;;;23.20;51.20;;;;;;6146915;28;83849;-64
2021/11/15 13:33:46;;;;;;;33.10;13.00;;;23.20;51.60;;;;;;6136396;28;83317;-64
2021/11/15 13:36:46;;;;;;;29.33;11.65;;;23.20;51.80;;;;;;6150760;28;83568;-66
2021/11/15 13:39:47;;;;;;;26.70;11.30;;;23.20;52.10;;;;;;6142263;28;83045;-65
2021/11/15 13:42:47;;;;;;;28.92;11.85;;;23.20;52.20;;;;;;6147485;28;83110;-67
2021/11/15 13:45:48;;;;;;;24.40;11.68;;;23.20;52.10;;;;;;6137835;28;83244;-68
2021/11/15 13:48:48;;;;;;;26.20;11.68;;;23.20;52.80;;;;;;6148302;28;83232;-67
2021/11/15 13:51:49;;;;;;;27.40;11.88;;;23.20;52.90;;;;;;6144671;28;84404;-69
2021/11/15 13:54:50;;;;;;;21.50;10.00;;;23.30;52.80;;;;;;6141269;28;83070;-68
2021/11/15 13:57:51;;;;;;;23.15;11.63;;;23.30;53.00;;;;;;6143293;28;84193;-66
2021/11/15 14:00:52;;;;;;;23.80;10.63;;;23.20;53.40;;;;;;6147110;28;83107;-67
2021/11/15 14:03:52;;;;;;;18.88;10.07;;;23.20;52.90;;;;;;6151037;28;83753;-67
2021/11/15 14:06:53;;;;;;;22.88;11.43;;;23.20;53.20;;;;;;6145826;28;83165;-67
2021/11/15 14:09:53;;;;;;;21.45;10.27;;;23.20;53.30;;;;;;6139420;28;83359;-65
2021/11/15 14:12:54;;;;;;;22.98;10.30;;;23.20;53.50;;;;;;6149015;28;83847;-65
2021/11/15 14:15:54;;;;;;;19.88;10.52;;;23.20;53.60;;;;;;6150050;28;83185;-67
2021/11/15 14:18:55;;;;;;;24.58;11.32;;;23.20;53.60;;;;;;6153314;28;83117;-65
2021/11/15 14:21:55;;;;;;;19.00;10.15;;;23.10;53.90;;;;;;6144164;28;83762;-66
2021/11/15 14:24:56;;;;;;;15.63;9.00;;;23.10;53.70;;;;;;6145622;28;84171;-68
2021/11/15 14:27:56;;;;;;;19.23;10.52;;;23.10;54.10;;;;;;6153101;28;84547;-68
2021/11/15 14:30:57;;;;;;;18.65;10.38;;;23.20;54.10;;;;;;6143427;28;82870;-68
2021/11/15 14:33:57;;;;;;;21.63;10.95;;;23.20;53.60;;;;;;6145685;28;83163;-68
2021/11/15 14:36:58;;;;;;;18.27;10.77;;;23.20;53.30;;;;;;6145037;28;83569;-68
2021/11/15 14:39:58;;;;;;;25.63;12.68;;;23.20;53.10;;;;;;6145965;28;82625;-68
2021/11/15 14:42:59;;;;;;;18.23;11.40;;;23.20;52.80;;;;;;6146274;28;84525;-69
2021/11/15 14:45:59;;;;;;;23.95;12.52;;;23.20;52.70;;;;;;6144082;28;84438;-69
2021/11/15 14:49:00;;;;;;;26.48;12.85;;;23.30;53.40;;;;;;6144585;28;83682;-69
2021/11/15 14:52:00;;;;;;;19.70;10.00;;;23.30;52.50;;;;;;6144098;28;83428;-68
2021/11/15 14:55:01;;;;;;;21.90;11.73;;;23.40;53.40;;;;;;6141749;28;84152;-68
2021/11/15 14:58:01;;;;;;;22.30;11.45;;;23.30;53.00;;;;;;6150516;28;83284;-68
2021/11/15 15:01:02;;;;;;;23.00;12.18;;;23.30;53.00;;;;;;6141195;28;83836;-68
2021/11/15 15:04:02;;;;;;;22.90;12.00;;;23.40;53.00;;;;;;6147526;28;83236;-69
2021/11/15 15:07:03;;;;;;;22.45;13.32;;;23.40;52.60;;;;;;6145058;28;83433;-67
2021/11/15 15:10:08;;;;;;;79.70;27.67;;;23.30;52.80;;;;;;6143250;28;84546;-69
2021/11/15 15:13:08;;;;;;;59.03;23.00;;;23.30;52.80;;;;;;6147557;28;83075;-68
2021/11/15 15:16:09;;;;;;;61.97;23.98;;;23.40;52.70;;;;;;6145530;28;83029;-68
2021/11/15 15:19:18;;;;;;;58.30;20.27;;;23.40;53.10;;;;;;6143638;28;85624;-67
2021/11/15 15:22:18;;;;;;;49.08;20.45;;;23.40;53.40;;;;;;6142363;28;84440;-67